sensor_id;sensor_type;location;lat;lon;timestamp;temperature;humidity
4429;DHT22;2227;47.810;8.810;2022-08-19T03:45:13;18.70;99.90
4429;DHT22;2227;47.810;8.810;2022-08-19T03:47:40;18.60;99.90
4429;DHT22;2227;47.810;8.810;2022-08-19T03:50:07;18.70;99.90
4429;DHT22;2227;47.810;8.810;2022-08-19T03:52:35;18.80;99.90
4429;DHT22;2227;47.810;8.810;2022-08-19T03:55:03;18.80;99.90
4429;DHT22;2227;47.810;8.810;2022-08-19T03:57:29;18.70;99.90
4429;DHT22;2227;47.810;8.810;2022-08-19T03:59:58;18.80;99.90
4429;DHT22;2227;47.810;8.810;2022-08-19T04:02:40;18.80;99.90
4429;DHT22;2227;47.810;8.810;2022-08-19T04:05:07;18.80;99.90
4429;DHT22;2227;47.810;8.810;2022-08-19T04:07:34;18.80;99.90
4429;DHT22;2227;47.810;8.810;2022-08-19T04:10:03;18.90;99.90
4429;DHT22;2227;47.810;8.810;2022-08-19T04:12:31;18.90;99.90
4429;DHT22;2227;47.810;8.810;2022-08-19T04:14:58;18.90;99.90
4429;DHT22;2227;47.810;8.810;2022-08-19T04:17:24;18.90;99.90
4429;DHT22;2227;47.810;8.810;2022-08-19T04:19:52;18.90;99.90
4429;DHT22;2227;47.810;8.810;2022-08-19T04:22:19;18.90;99.90
4429;DHT22;2227;47.810;8.810;2022-08-19T04:24:45;18.90;99.90
4429;DHT22;2227;47.810;8.810;2022-08-19T04:27:12;18.90;99.90
4429;DHT22;2227;47.810;8.810;2022-08-19T04:29:39;18.90;99.90
4429;DHT22;2227;47.810;8.810;2022-08-19T04:32:06;18.90;99.90
4429;DHT22;2227;47.810;8.810;2022-08-19T04:34:35;18.90;99.90
4429;DHT22;2227;47.810;8.810;2022-08-19T04:37:22;18.90;99.90
4429;DHT22;2227;47.810;8.810;2022-08-19T04:39:49;18.90;99.90
4429;DHT22;2227;47.810;8.810;2022-08-19T04:42:35;18.90;99.90
4429;DHT22;2227;47.810;8.810;2022-08-19T04:45:10;18.90;99.90
4429;DHT22;2227;47.810;8.810;2022-08-19T04:47:42;18.90;99.90
4429;DHT22;2227;47.810;8.810;2022-08-19T04:50:24;18.80;99.90
4429;DHT22;2227;47.810;8.810;2022-08-19T04:52:51;18.70;99.90
4429;DHT22;2227;47.810;8.810;2022-08-19T04:55:19;18.60;99.90
4429;DHT22;2227;47.810;8.810;2022-08-19T04:57:45;18.70;99.90
4429;DHT22;2227;47.810;8.810;2022-08-19T05:00:13;18.80;99.90
4429;DHT22;2227;47.810;8.810;2022-08-19T05:02:39;18.90;99.90
4429;DHT22;2227;47.810;8.810;2022-08-19T05:05:07;18.90;99.90
4429;DHT22;2227;47.810;8.810;2022-08-19T05:07:34;18.80;99.90
4429;DHT22;2227;47.810;8.810;2022-08-19T05:10:03;18.80;99.90
4429;DHT22;2227;47.810;8.810;2022-08-19T05:12:31;18.90;99.90
4429;DHT22;2227;47.810;8.810;2022-08-19T05:14:59;18.90;99.90
4429;DHT22;2227;47.810;8.810;2022-08-19T05:17:27;19.00;99.90
4429;DHT22;2227;47.810;8.810;2022-08-19T05:19:58;19.00;99.90
4429;DHT22;2227;47.810;8.810;2022-08-19T05:22:45;19.10;99.90
4429;DHT22;2227;47.810;8.810;2022-08-19T05:25:15;19.10;99.90
4429;DHT22;2227;47.810;8.810;2022-08-19T05:27:45;19.10;99.90
4429;DHT22;2227;47.810;8.810;2022-08-19T05:30:12;19.10;99.90
4429;DHT22;2227;47.810;8.810;2022-08-19T05:32:40;19.10;99.90
4429;DHT22;2227;47.810;8.810;2022-08-19T05:35:07;19.10;99.90
4429;DHT22;2227;47.810;8.810;2022-08-19T05:37:34;19.20;99.90
4429;DHT22;2227;47.810;8.810;2022-08-19T05:40:02;19.10;99.90
4429;DHT22;2227;47.810;8.810;2022-08-19T05:42:29;19.00;99.90
4429;DHT22;2227;47.810;8.810;2022-08-19T05:44:57;18.90;99.90
4429;DHT22;2227;47.810;8.810;2022-08-19T05:47:24;18.90;99.90
4429;DHT22;2227;47.810;8.810;2022-08-19T05:49:51;18.80;99.90
4429;DHT22;2227;47.810;8.810;2022-08-19T05:52:18;18.80;99.90
4429;DHT22;2227;47.810;8.810;2022-08-19T05:54:52;18.90;99.90
4429;DHT22;2227;47.810;8.810;2022-08-19T05:57:22;19.00;99.90
4429;DHT22;2227;47.810;8.810;2022-08-19T05:59:49;18.90;99.90
4429;DHT22;2227;47.810;8.810;2022-08-19T06:02:24;19.00;99.90
4429;DHT22;2227;47.810;8.810;2022-08-19T06:04:51;19.10;99.90
4429;DHT22;2227;47.810;8.810;2022-08-19T06:07:18;19.10;99.90
4429;DHT22;2227;47.810;8.810;2022-08-19T06:09:46;19.20;99.90
4429;DHT22;2227;47.810;8.810;2022-08-19T06:12:27;19.20;99.90
4429;DHT22;2227;47.810;8.810;2022-08-19T06:14:55;19.20;99.90
4429;DHT22;2227;47.810;8.810;2022-08-19T06:17:27;19.20;99.90
4429;DHT22;2227;47.810;8.810;2022-08-19T06:19:58;19.20;99.90
4429;DHT22;2227;47.810;8.810;2022-08-19T06:22:26;19.30;99.90
4429;DHT22;2227;47.810;8.810;2022-08-19T06:24:54;19.30;99.90
4429;DHT22;2227;47.810;8.810;2022-08-19T06:27:22;19.40;99.90
4429;DHT22;2227;47.810;8.810;2022-08-19T06:29:49;19.40;99.90
4429;DHT22;2227;47.810;8.810;2022-08-19T06:32:17;19.40;99.90
4429;DHT22;2227;47.810;8.810;2022-08-19T06:34:45;19.40;99.90
4429;DHT22;2227;47.810;8.810;2022-08-19T06:37:12;19.30;99.90
4429;DHT22;2227;47.810;8.810;2022-08-19T06:39:41;19.30;99.90
4429;DHT22;2227;47.810;8.810;2022-08-19T06:42:09;19.30;99.90
4429;DHT22;2227;47.810;8.810;2022-08-19T06:44:45;19.30;99.90
4429;DHT22;2227;47.810;8.810;2022-08-19T06:47:20;19.30;99.90
4429;DHT22;2227;47.810;8.810;2022-08-19T06:49:58;19.40;99.90
4429;DHT22;2227;47.810;8.810;2022-08-19T06:52:33;19.40;99.90
4429;DHT22;2227;47.810;8.810;2022-08-19T06:55:03;19.30;99.90
4429;DHT22;2227;47.810;8.810;2022-08-19T06:57:32;19.20;99.90
4429;DHT22;2227;47.810;8.810;2022-08-19T06:59:59;19.10;99.90
4429;DHT22;2227;47.810;8.810;2022-08-19T07:02:26;19.10;99.90
4429;DHT22;2227;47.810;8.810;2022-08-19T07:04:53;19.00;99.90
4429;DHT22;2227;47.810;8.810;2022-08-19T07:07:23;19.00;99.90
4429;DHT22;2227;47.810;8.810;2022-08-19T07:09:50;19.00;99.90
4429;DHT22;2227;47.810;8.810;2022-08-19T07:12:29;18.90;99.90
4429;DHT22;2227;47.810;8.810;2022-08-19T07:15:01;18.90;99.90
4429;DHT22;2227;47.810;8.810;2022-08-19T07:17:28;18.90;99.90
4429;DHT22;2227;47.810;8.810;2022-08-19T07:19:56;19.00;99.90
4429;DHT22;2227;47.810;8.810;2022-08-19T07:22:31;19.10;99.90
4429;DHT22;2227;47.810;8.810;2022-08-19T07:24:59;19.10;99.90
4429;DHT22;2227;47.810;8.810;2022-08-19T07:27:26;19.00;99.90
4429;DHT22;2227;47.810;8.810;2022-08-19T07:29:54;19.00;99.90
4429;DHT22;2227;47.810;8.810;2022-08-19T07:32:25;19.00;99.90
4429;DHT22;2227;47.810;8.810;2022-08-19T07:34:54;18.90;99.90
4429;DHT22;2227;47.810;8.810;2022-08-19T07:37:23;18.90;99.90
4429;DHT22;2227;47.810;8.810;2022-08-19T07:39:58;18.90;99.90
4429;DHT22;2227;47.810;8.810;2022-08-19T07:42:25;19.00;99.90
4429;DHT22;2227;47.810;8.810;2022-08-19T07:44:53;18.90;99.90
4429;DHT22;2227;47.810;8.810;2022-08-19T07:47:20;18.90;99.90
4429;DHT22;2227;47.810;8.810;2022-08-19T07:50:09;19.00;99.90
4429;DHT22;2227;47.810;8.810;2022-08-19T07:52:38;19.00;99.90
4429;DHT22;2227;47.810;8.810;2022-08-19T07:55:08;19.00;99.90
4429;DHT22;2227;47.810;8.810;2022-08-19T07:57:55;19.10;99.90
4429;DHT22;2227;47.810;8.810;2022-08-19T08:00:22;19.10;99.90
4429;DHT22;2227;47.810;8.810;2022-08-19T08:02:50;19.20;99.90
4429;DHT22;2227;47.810;8.810;2022-08-19T08:05:22;19.20;99.90
4429;DHT22;2227;47.810;8.810;2022-08-19T08:08:10;19.20;99.90
4429;DHT22;2227;47.810;8.810;2022-08-19T08:10:56;19.10;99.90
4429;DHT22;2227;47.810;8.810;2022-08-19T08:13:24;19.10;99.90
4429;DHT22;2227;47.810;8.810;2022-08-19T08:15:52;19.10;99.90
4429;DHT22;2227;47.810;8.810;2022-08-19T08:18:22;19.20;99.90
4429;DHT22;2227;47.810;8.810;2022-08-19T08:20:54;19.30;99.90
4429;DHT22;2227;47.810;8.810;2022-08-19T08:23:22;19.20;99.90
4429;DHT22;2227;47.810;8.810;2022-08-19T08:25:49;19.20;99.90
4429;DHT22;2227;47.810;8.810;2022-08-19T08:28:17;19.20;99.90
4429;DHT22;2227;47.810;8.810;2022-08-19T08:30:46;19.30;99.90
4429;DHT22;2227;47.810;8.810;2022-08-19T08:33:20;19.30;99.90
4429;DHT22;2227;47.810;8.810;2022-08-19T08:36:06;19.30;99.90
4429;DHT22;2227;47.810;8.810;2022-08-19T08:38:36;19.20;99.90
4429;DHT22;2227;47.810;8.810;2022-08-19T08:43:47;19.20;99.90
4429;DHT22;2227;47.810;8.810;2022-08-19T08:52:24;19.00;99.90
4429;DHT22;2227;47.810;8.810;2022-08-19T08:55:00;19.00;99.90
4429;DHT22;2227;47.810;8.810;2022-08-19T09:00:26;19.10;99.90
4429;DHT22;2227;47.810;8.810;2022-08-19T09:02:55;19.00;99.90
4429;DHT22;2227;47.810;8.810;2022-08-19T09:08:40;19.00;99.90
4429;DHT22;2227;47.810;8.810;2022-08-19T09:11:19;19.00;99.90
4429;DHT22;2227;47.810;8.810;2022-08-19T09:17:09;19.10;99.90
4429;DHT22;2227;47.810;8.810;2022-08-19T09:19:52;19.20;99.90
4429;DHT22;2227;47.810;8.810;2022-08-19T09:22:19;19.10;99.90
4429;DHT22;2227;47.810;8.810;2022-08-19T09:24:52;19.00;99.90
4429;DHT22;2227;47.810;8.810;2022-08-19T09:27:20;19.10;99.90
4429;DHT22;2227;47.810;8.810;2022-08-19T09:30:16;19.00;99.90
4429;DHT22;2227;47.810;8.810;2022-08-19T09:32:44;19.10;99.90
4429;DHT22;2227;47.810;8.810;2022-08-19T09:35:12;19.10;99.90
4429;DHT22;2227;47.810;8.810;2022-08-19T09:37:41;19.10;99.90
4429;DHT22;2227;47.810;8.810;2022-08-19T09:40:09;19.10;99.90
4429;DHT22;2227;47.810;8.810;2022-08-19T09:42:38;19.10;99.90
4429;DHT22;2227;47.810;8.810;2022-08-19T09:45:17;19.10;99.90
4429;DHT22;2227;47.810;8.810;2022-08-19T09:47:49;19.10;99.90
4429;DHT22;2227;47.810;8.810;2022-08-19T09:50:21;19.20;99.90
4429;DHT22;2227;47.810;8.810;2022-08-19T09:52:48;19.20;99.90
4429;DHT22;2227;47.810;8.810;2022-08-19T09:55:24;19.20;99.90
4429;DHT22;2227;47.810;8.810;2022-08-19T09:57:59;19.10;99.90
4429;DHT22;2227;47.810;8.810;2022-08-19T10:00:26;19.10;99.90
4429;DHT22;2227;47.810;8.810;2022-08-19T10:02:53;19.00;99.90
4429;DHT22;2227;47.810;8.810;2022-08-19T10:05:20;18.90;99.90
4429;DHT22;2227;47.810;8.810;2022-08-19T10:08:08;18.80;99.90
4429;DHT22;2227;47.810;8.810;2022-08-19T10:10:40;18.70;99.90
4429;DHT22;2227;47.810;8.810;2022-08-19T10:13:14;18.60;99.90
4429;DHT22;2227;47.810;8.810;2022-08-19T10:15:41;18.60;99.90
4429;DHT22;2227;47.810;8.810;2022-08-19T10:18:14;18.60;99.90
4429;DHT22;2227;47.810;8.810;2022-08-19T10:20:44;18.50;99.90
4429;DHT22;2227;47.810;8.810;2022-08-19T10:23:19;18.40;99.90
4429;DHT22;2227;47.810;8.810;2022-08-19T10:25:46;18.40;99.90
4429;DHT22;2227;47.810;8.810;2022-08-19T10:28:14;18.40;99.90
4429;DHT22;2227;47.810;8.810;2022-08-19T10:30:41;18.40;99.90
4429;DHT22;2227;47.810;8.810;2022-08-19T10:33:09;18.30;99.90
4429;DHT22;2227;47.810;8.810;2022-08-19T10:35:37;18.30;99.90
4429;DHT22;2227;47.810;8.810;2022-08-19T10:38:08;18.30;99.90
4429;DHT22;2227;47.810;8.810;2022-08-19T10:40:35;18.20;99.90
4429;DHT22;2227;47.810;8.810;2022-08-19T10:43:03;18.30;99.90
4429;DHT22;2227;47.810;8.810;2022-08-19T10:45:29;18.20;99.90
4429;DHT22;2227;47.810;8.810;2022-08-19T10:47:56;18.20;99.90
4429;DHT22;2227;47.810;8.810;2022-08-19T10:50:24;18.20;99.90
4429;DHT22;2227;47.810;8.810;2022-08-19T10:53:09;18.20;99.90
4429;DHT22;2227;47.810;8.810;2022-08-19T10:55:36;18.10;99.90
4429;DHT22;2227;47.810;8.810;2022-08-19T10:58:22;18.20;99.90
4429;DHT22;2227;47.810;8.810;2022-08-19T11:00:53;18.10;99.90
4429;DHT22;2227;47.810;8.810;2022-08-19T11:03:21;18.10;99.90
4429;DHT22;2227;47.810;8.810;2022-08-19T11:06:00;18.10;99.90
4429;DHT22;2227;47.810;8.810;2022-08-19T11:08:27;18.10;99.90
4429;DHT22;2227;47.810;8.810;2022-08-19T11:10:55;18.00;99.90
4429;DHT22;2227;47.810;8.810;2022-08-19T11:13:23;18.00;99.90
4429;DHT22;2227;47.810;8.810;2022-08-19T11:15:59;18.00;99.90
4429;DHT22;2227;47.810;8.810;2022-08-19T11:18:34;18.00;99.90
4429;DHT22;2227;47.810;8.810;2022-08-19T11:21:14;18.00;99.90
4429;DHT22;2227;47.810;8.810;2022-08-19T11:23:43;18.10;99.90
4429;DHT22;2227;47.810;8.810;2022-08-19T11:26:11;18.10;99.90
4429;DHT22;2227;47.810;8.810;2022-08-19T11:28:38;18.10;99.90
4429;DHT22;2227;47.810;8.810;2022-08-19T11:31:17;18.10;99.90
4429;DHT22;2227;47.810;8.810;2022-08-19T11:33:44;18.10;99.90
4429;DHT22;2227;47.810;8.810;2022-08-19T11:36:14;18.00;99.90
4429;DHT22;2227;47.810;8.810;2022-08-19T11:38:41;18.00;99.90
4429;DHT22;2227;47.810;8.810;2022-08-19T11:41:08;18.00;99.90
4429;DHT22;2227;47.810;8.810;2022-08-19T11:43:36;18.00;99.90
4429;DHT22;2227;47.810;8.810;2022-08-19T11:46:05;18.00;99.90
4429;DHT22;2227;47.810;8.810;2022-08-19T11:48:34;18.00;99.90
4429;DHT22;2227;47.810;8.810;2022-08-19T11:51:05;18.00;99.90
4429;DHT22;2227;47.810;8.810;2022-08-19T11:53:35;18.00;99.90
4429;DHT22;2227;47.810;8.810;2022-08-19T11:56:05;18.00;99.90
4429;DHT22;2227;47.810;8.810;2022-08-19T11:58:32;18.00;99.90
4429;DHT22;2227;47.810;8.810;2022-08-19T12:01:00;18.00;99.90
4429;DHT22;2227;47.810;8.810;2022-08-19T12:03:27;18.00;99.90
4429;DHT22;2227;47.810;8.810;2022-08-19T12:05:54;18.00;99.90
4429;DHT22;2227;47.810;8.810;2022-08-19T12:08:21;18.00;99.90
4429;DHT22;2227;47.810;8.810;2022-08-19T12:10:48;18.00;99.90
4429;DHT22;2227;47.810;8.810;2022-08-19T12:13:15;18.10;99.90
4429;DHT22;2227;47.810;8.810;2022-08-19T12:15:46;18.00;99.90
4429;DHT22;2227;47.810;8.810;2022-08-19T12:18:14;18.00;99.90
4429;DHT22;2227;47.810;8.810;2022-08-19T12:20:42;18.00;99.90
4429;DHT22;2227;47.810;8.810;2022-08-19T12:23:09;18.00;99.90
4429;DHT22;2227;47.810;8.810;2022-08-19T12:25:37;18.10;99.90
4429;DHT22;2227;47.810;8.810;2022-08-19T12:28:10;18.10;99.90
4429;DHT22;2227;47.810;8.810;2022-08-19T12:30:37;18.00;99.90
4429;DHT22;2227;47.810;8.810;2022-08-19T12:33:04;18.10;99.90
4429;DHT22;2227;47.810;8.810;2022-08-19T12:35:31;18.10;99.90
4429;DHT22;2227;47.810;8.810;2022-08-19T12:37:58;18.10;99.90
4429;DHT22;2227;47.810;8.810;2022-08-19T12:40:26;18.20;99.90
4429;DHT22;2227;47.810;8.810;2022-08-19T12:42:54;18.10;99.90
4429;DHT22;2227;47.810;8.810;2022-08-19T12:45:21;18.10;99.90
4429;DHT22;2227;47.810;8.810;2022-08-19T12:47:48;18.10;99.90
4429;DHT22;2227;47.810;8.810;2022-08-19T12:50:20;18.20;99.90
4429;DHT22;2227;47.810;8.810;2022-08-19T12:52:48;18.20;99.90
4429;DHT22;2227;47.810;8.810;2022-08-19T12:55:15;18.30;99.90
4429;DHT22;2227;47.810;8.810;2022-08-19T12:57:41;18.30;99.90
4429;DHT22;2227;47.810;8.810;2022-08-19T13:00:15;18.40;99.90
4429;DHT22;2227;47.810;8.810;2022-08-19T13:02:45;18.40;99.90
4429;DHT22;2227;47.810;8.810;2022-08-19T13:05:14;18.40;99.90
4429;DHT22;2227;47.810;8.810;2022-08-19T13:07:42;18.40;99.90
4429;DHT22;2227;47.810;8.810;2022-08-19T13:10:12;18.50;99.90
4429;DHT22;2227;47.810;8.810;2022-08-19T13:12:39;18.50;99.90
4429;DHT22;2227;47.810;8.810;2022-08-19T13:15:08;18.50;99.90
4429;DHT22;2227;47.810;8.810;2022-08-19T13:17:37;18.50;99.90
4429;DHT22;2227;47.810;8.810;2022-08-19T13:20:06;18.50;99.90
4429;DHT22;2227;47.810;8.810;2022-08-19T13:22:34;18.60;99.90
4429;DHT22;2227;47.810;8.810;2022-08-19T13:25:06;18.60;99.90
4429;DHT22;2227;47.810;8.810;2022-08-19T13:27:33;18.70;99.90
4429;DHT22;2227;47.810;8.810;2022-08-19T13:30:01;18.70;99.90
4429;DHT22;2227;47.810;8.810;2022-08-19T13:32:47;18.70;99.90
4429;DHT22;2227;47.810;8.810;2022-08-19T13:35:32;18.70;99.90
4429;DHT22;2227;47.810;8.810;2022-08-19T13:37:59;18.70;99.90
4429;DHT22;2227;47.810;8.810;2022-08-19T13:40:27;18.80;99.90
4429;DHT22;2227;47.810;8.810;2022-08-19T13:42:55;18.80;99.90
4429;DHT22;2227;47.810;8.810;2022-08-19T13:45:24;18.90;99.90
4429;DHT22;2227;47.810;8.810;2022-08-19T13:47:54;18.90;99.90
4429;DHT22;2227;47.810;8.810;2022-08-19T13:50:28;19.00;99.90
4429;DHT22;2227;47.810;8.810;2022-08-19T13:52:55;19.00;99.90
4429;DHT22;2227;47.810;8.810;2022-08-19T13:55:24;19.00;99.90
4429;DHT22;2227;47.810;8.810;2022-08-19T13:57:56;19.00;99.90
4429;DHT22;2227;47.810;8.810;2022-08-19T14:00:26;18.90;99.90
4429;DHT22;2227;47.810;8.810;2022-08-19T14:02:54;18.80;99.90
4429;DHT22;2227;47.810;8.810;2022-08-19T14:05:23;18.80;99.90
4429;DHT22;2227;47.810;8.810;2022-08-19T14:07:51;18.80;99.90
4429;DHT22;2227;47.810;8.810;2022-08-19T14:10:18;18.70;99.90
4429;DHT22;2227;47.810;8.810;2022-08-19T14:12:45;18.70;99.90
4429;DHT22;2227;47.810;8.810;2022-08-19T14:15:13;18.70;99.90
4429;DHT22;2227;47.810;8.810;2022-08-19T14:17:42;18.70;99.90
4429;DHT22;2227;47.810;8.810;2022-08-19T14:20:10;18.70;99.90
4429;DHT22;2227;47.810;8.810;2022-08-19T14:22:44;18.70;99.90
4429;DHT22;2227;47.810;8.810;2022-08-19T14:25:15;18.70;99.90
4429;DHT22;2227;47.810;8.810;2022-08-19T14:27:42;18.70;99.90
4429;DHT22;2227;47.810;8.810;2022-08-19T14:30:13;18.80;99.90
4429;DHT22;2227;47.810;8.810;2022-08-19T14:32:40;18.80;99.90
4429;DHT22;2227;47.810;8.810;2022-08-19T14:35:11;18.80;99.90
4429;DHT22;2227;47.810;8.810;2022-08-19T14:37:39;18.80;99.90
4429;DHT22;2227;47.810;8.810;2022-08-19T14:40:13;18.80;99.90
4429;DHT22;2227;47.810;8.810;2022-08-19T14:42:40;18.70;99.90
4429;DHT22;2227;47.810;8.810;2022-08-19T14:45:10;18.70;99.90
4429;DHT22;2227;47.810;8.810;2022-08-19T14:47:37;18.70;99.90
4429;DHT22;2227;47.810;8.810;2022-08-19T14:50:07;18.70;99.90
4429;DHT22;2227;47.810;8.810;2022-08-19T14:52:37;18.70;99.90
4429;DHT22;2227;47.810;8.810;2022-08-19T14:55:04;18.70;99.90
4429;DHT22;2227;47.810;8.810;2022-08-19T14:57:33;18.70;99.90
4429;DHT22;2227;47.810;8.810;2022-08-19T14:59:59;18.70;99.90
4429;DHT22;2227;47.810;8.810;2022-08-19T15:02:26;18.70;99.90
4429;DHT22;2227;47.810;8.810;2022-08-19T15:05:01;18.70;99.90
4429;DHT22;2227;47.810;8.810;2022-08-19T15:07:28;18.70;99.90
4429;DHT22;2227;47.810;8.810;2022-08-19T15:09:56;18.70;99.90
4429;DHT22;2227;47.810;8.810;2022-08-19T15:12:23;18.80;99.90
4429;DHT22;2227;47.810;8.810;2022-08-19T15:14:51;18.70;99.90
4429;DHT22;2227;47.810;8.810;2022-08-19T15:17:22;18.70;99.90
4429;DHT22;2227;47.810;8.810;2022-08-19T15:20:10;18.60;99.90
4429;DHT22;2227;47.810;8.810;2022-08-19T15:22:38;18.50;99.90
4429;DHT22;2227;47.810;8.810;2022-08-19T15:25:06;18.50;99.90
4429;DHT22;2227;47.810;8.810;2022-08-19T15:27:33;18.50;99.90
4429;DHT22;2227;47.810;8.810;2022-08-19T15:30:00;18.50;99.90
4429;DHT22;2227;47.810;8.810;2022-08-19T15:32:27;18.50;99.90
4429;DHT22;2227;47.810;8.810;2022-08-19T15:34:54;18.50;99.90
4429;DHT22;2227;47.810;8.810;2022-08-19T15:37:21;18.50;99.90
4429;DHT22;2227;47.810;8.810;2022-08-19T15:39:50;18.50;99.90
4429;DHT22;2227;47.810;8.810;2022-08-19T15:42:17;18.50;99.90
4429;DHT22;2227;47.810;8.810;2022-08-19T15:44:55;18.50;99.90
4429;DHT22;2227;47.810;8.810;2022-08-19T15:47:28;18.60;99.90
4429;DHT22;2227;47.810;8.810;2022-08-19T15:50:18;18.60;99.90
4429;DHT22;2227;47.810;8.810;2022-08-19T15:52:50;18.60;99.90
4429;DHT22;2227;47.810;8.810;2022-08-19T15:55:21;18.70;99.90
4429;DHT22;2227;47.810;8.810;2022-08-19T15:58:06;18.70;99.90
4429;DHT22;2227;47.810;8.810;2022-08-19T16:00:59;18.80;99.90
4429;DHT22;2227;47.810;8.810;2022-08-19T16:03:47;18.80;99.90
4429;DHT22;2227;47.810;8.810;2022-08-19T16:06:43;18.80;99.90
4429;DHT22;2227;47.810;8.810;2022-08-19T16:09:10;18.80;99.90
4429;DHT22;2227;47.810;8.810;2022-08-19T16:11:45;18.80;99.90
4429;DHT22;2227;47.810;8.810;2022-08-19T16:14:23;18.80;99.90
4429;DHT22;2227;47.810;8.810;2022-08-19T16:16:50;18.80;99.90
4429;DHT22;2227;47.810;8.810;2022-08-19T16:19:18;18.80;99.90
4429;DHT22;2227;47.810;8.810;2022-08-19T16:21:48;18.80;99.90
4429;DHT22;2227;47.810;8.810;2022-08-19T16:24:17;18.80;99.90
4429;DHT22;2227;47.810;8.810;2022-08-19T16:26:44;18.80;99.90
4429;DHT22;2227;47.810;8.810;2022-08-19T16:29:11;18.80;99.90
4429;DHT22;2227;47.810;8.810;2022-08-19T16:31:42;18.80;99.90
4429;DHT22;2227;47.810;8.810;2022-08-19T16:34:11;18.80;99.90
4429;DHT22;2227;47.810;8.810;2022-08-19T16:36:38;18.80;99.90
4429;DHT22;2227;47.810;8.810;2022-08-19T16:39:10;18.80;99.90
4429;DHT22;2227;47.810;8.810;2022-08-19T16:41:38;18.90;99.90
4429;DHT22;2227;47.810;8.810;2022-08-19T16:44:06;19.00;99.90
4429;DHT22;2227;47.810;8.810;2022-08-19T16:46:34;19.00;99.90
4429;DHT22;2227;47.810;8.810;2022-08-19T16:49:04;19.20;99.90
4429;DHT22;2227;47.810;8.810;2022-08-19T16:51:31;19.10;99.90
4429;DHT22;2227;47.810;8.810;2022-08-19T16:54:00;19.30;99.90
4429;DHT22;2227;47.810;8.810;2022-08-19T16:56:27;19.30;99.90
4429;DHT22;2227;47.810;8.810;2022-08-19T16:58:54;19.40;99.90
4429;DHT22;2227;47.810;8.810;2022-08-19T17:01:22;19.20;99.90
4429;DHT22;2227;47.810;8.810;2022-08-19T17:03:49;19.10;99.90
4429;DHT22;2227;47.810;8.810;2022-08-19T17:06:24;19.00;99.90
4429;DHT22;2227;47.810;8.810;2022-08-19T17:08:54;18.90;99.90
4429;DHT22;2227;47.810;8.810;2022-08-19T17:11:23;18.80;99.90
4429;DHT22;2227;47.810;8.810;2022-08-19T17:13:50;18.90;99.90
4429;DHT22;2227;47.810;8.810;2022-08-19T17:16:19;18.90;99.90
4429;DHT22;2227;47.810;8.810;2022-08-19T17:18:47;18.80;99.90
4429;DHT22;2227;47.810;8.810;2022-08-19T17:21:23;18.80;99.90
4429;DHT22;2227;47.810;8.810;2022-08-19T17:23:56;18.80;99.90
4429;DHT22;2227;47.810;8.810;2022-08-19T17:26:24;18.80;99.90
4429;DHT22;2227;47.810;8.810;2022-08-19T17:28:54;18.80;99.90
4429;DHT22;2227;47.810;8.810;2022-08-19T17:31:23;18.80;99.90
4429;DHT22;2227;47.810;8.810;2022-08-19T17:33:50;18.80;99.90
4429;DHT22;2227;47.810;8.810;2022-08-19T17:36:22;18.70;99.90
4429;DHT22;2227;47.810;8.810;2022-08-19T17:38:52;18.70;99.90
4429;DHT22;2227;47.810;8.810;2022-08-19T17:41:22;18.70;99.90
4429;DHT22;2227;47.810;8.810;2022-08-19T17:43:49;18.70;99.90
4429;DHT22;2227;47.810;8.810;2022-08-19T17:46:16;18.70;99.90
4429;DHT22;2227;47.810;8.810;2022-08-19T17:48:46;18.70;99.90
4429;DHT22;2227;47.810;8.810;2022-08-19T17:51:37;18.70;99.90
4429;DHT22;2227;47.810;8.810;2022-08-19T17:54:10;18.70;99.90
4429;DHT22;2227;47.810;8.810;2022-08-19T17:56:38;18.60;99.90
4429;DHT22;2227;47.810;8.810;2022-08-19T17:59:05;18.70;99.90
4429;DHT22;2227;47.810;8.810;2022-08-19T18:01:39;18.70;99.90
4429;DHT22;2227;47.810;8.810;2022-08-19T18:04:24;18.70;99.90
4429;DHT22;2227;47.810;8.810;2022-08-19T18:06:52;18.70;99.90
4429;DHT22;2227;47.810;8.810;2022-08-19T18:09:26;18.70;99.90
4429;DHT22;2227;47.810;8.810;2022-08-19T18:12:05;18.70;99.90
4429;DHT22;2227;47.810;8.810;2022-08-19T18:14:34;18.60;99.90
4429;DHT22;2227;47.810;8.810;2022-08-19T18:17:06;18.60;99.90
4429;DHT22;2227;47.810;8.810;2022-08-19T18:19:37;18.60;99.90
4429;DHT22;2227;47.810;8.810;2022-08-19T18:22:32;18.50;99.90
4429;DHT22;2227;47.810;8.810;2022-08-19T18:25:09;18.60;99.90
4429;DHT22;2227;47.810;8.810;2022-08-19T18:27:36;18.60;99.90
4429;DHT22;2227;47.810;8.810;2022-08-19T18:30:04;18.50;99.90
4429;DHT22;2227;47.810;8.810;2022-08-19T18:32:32;18.50;99.90
4429;DHT22;2227;47.810;8.810;2022-08-19T18:35:01;18.60;99.90
4429;DHT22;2227;47.810;8.810;2022-08-19T18:37:29;18.60;99.90
4429;DHT22;2227;47.810;8.810;2022-08-19T18:39:55;18.60;99.90
4429;DHT22;2227;47.810;8.810;2022-08-19T18:42:43;18.70;99.90
4429;DHT22;2227;47.810;8.810;2022-08-19T18:45:29;18.70;99.90
4429;DHT22;2227;47.810;8.810;2022-08-19T18:48:14;18.70;99.90
4429;DHT22;2227;47.810;8.810;2022-08-19T18:51:00;18.70;99.90
4429;DHT22;2227;47.810;8.810;2022-08-19T18:53:30;18.70;99.90
4429;DHT22;2227;47.810;8.810;2022-08-19T18:55:57;18.70;99.90
4429;DHT22;2227;47.810;8.810;2022-08-19T18:58:27;18.80;99.90
4429;DHT22;2227;47.810;8.810;2022-08-19T19:01:03;18.90;99.90
4429;DHT22;2227;47.810;8.810;2022-08-19T19:03:37;18.90;99.90
4429;DHT22;2227;47.810;8.810;2022-08-19T19:06:07;18.80;99.90
4429;DHT22;2227;47.810;8.810;2022-08-19T19:08:34;18.80;99.90
4429;DHT22;2227;47.810;8.810;2022-08-19T19:11:04;18.70;99.90
4429;DHT22;2227;47.810;8.810;2022-08-19T19:13:32;18.70;99.90
4429;DHT22;2227;47.810;8.810;2022-08-19T19:16:00;18.70;99.90
4429;DHT22;2227;47.810;8.810;2022-08-19T19:18:28;18.60;99.90
4429;DHT22;2227;47.810;8.810;2022-08-19T19:20:56;18.50;99.90
4429;DHT22;2227;47.810;8.810;2022-08-19T19:23:23;18.50;99.90
4429;DHT22;2227;47.810;8.810;2022-08-19T19:25:51;18.50;99.90
4429;DHT22;2227;47.810;8.810;2022-08-19T19:28:22;18.50;99.90
4429;DHT22;2227;47.810;8.810;2022-08-19T19:30:52;18.50;99.90
4429;DHT22;2227;47.810;8.810;2022-08-19T19:33:19;18.50;99.90
4429;DHT22;2227;47.810;8.810;2022-08-19T19:35:46;18.50;99.90
4429;DHT22;2227;47.810;8.810;2022-08-19T19:38:13;18.60;99.90
4429;DHT22;2227;47.810;8.810;2022-08-19T19:40:40;18.60;99.90
4429;DHT22;2227;47.810;8.810;2022-08-19T19:43:07;18.60;99.90
4429;DHT22;2227;47.810;8.810;2022-08-19T19:45:34;18.50;99.90
4429;DHT22;2227;47.810;8.810;2022-08-19T19:48:00;18.50;99.90
4429;DHT22;2227;47.810;8.810;2022-08-19T19:50:27;18.60;99.90
4429;DHT22;2227;47.810;8.810;2022-08-19T19:52:56;18.60;99.90
4429;DHT22;2227;47.810;8.810;2022-08-19T19:55:24;18.60;99.90
4429;DHT22;2227;47.810;8.810;2022-08-19T19:57:52;18.60;99.90
4429;DHT22;2227;47.810;8.810;2022-08-19T20:00:20;18.60;99.90
4429;DHT22;2227;47.810;8.810;2022-08-19T20:02:48;18.60;99.90
4429;DHT22;2227;47.810;8.810;2022-08-19T20:05:17;18.50;99.90
4429;DHT22;2227;47.810;8.810;2022-08-19T20:07:47;18.50;99.90
4429;DHT22;2227;47.810;8.810;2022-08-19T20:10:33;18.60;99.90
4429;DHT22;2227;47.810;8.810;2022-08-19T20:13:01;18.60;99.90
4429;DHT22;2227;47.810;8.810;2022-08-19T20:15:29;18.70;99.90
4429;DHT22;2227;47.810;8.810;2022-08-19T20:17:57;18.60;99.90
4429;DHT22;2227;47.810;8.810;2022-08-19T20:20:25;18.50;99.90
4429;DHT22;2227;47.810;8.810;2022-08-19T20:22:52;18.50;99.90
4429;DHT22;2227;47.810;8.810;2022-08-19T20:25:19;18.60;99.90